createdAt,value
2018-05-07T00:01:58.395Z,2.3
2018-05-07T00:04:58.430Z,3.3
2018-05-07T00:07:58.686Z,2.4
2018-05-07T00:10:58.650Z,3.7
2018-05-07T00:13:58.409Z,2.7
2018-05-07T00:16:58.392Z,2.1
2018-05-07T00:19:58.485Z,2.4
2018-05-07T00:22:58.554Z,3.3
2018-05-07T00:25:58.441Z,2.2
2018-05-07T00:28:58.633Z,2.2
2018-05-07T00:31:58.491Z,2.8
2018-05-07T00:34:58.501Z,3
2018-05-07T00:37:58.531Z,2.3
2018-05-07T00:40:58.630Z,3.3
2018-05-07T00:43:58.555Z,2.7
2018-05-07T00:46:58.559Z,3.5
2018-05-07T00:49:58.556Z,2.2
2018-05-07T00:52:58.422Z,2.1
2018-05-07T00:55:58.444Z,2.5
2018-05-07T00:58:58.402Z,2.5
2018-05-07T01:01:58.428Z,2.2
2018-05-07T01:04:58.779Z,2.4
2018-05-07T01:07:58.490Z,3.1
2018-05-07T01:10:58.522Z,3.1
2018-05-07T01:13:58.433Z,2.8
2018-05-07T01:16:58.629Z,3
2018-05-07T01:19:58.518Z,2.2
2018-05-07T01:22:58.435Z,2.2
2018-05-07T01:25:58.490Z,2.6
2018-05-07T01:28:58.663Z,2.2
2018-05-07T01:31:58.407Z,2.3
2018-05-07T01:34:58.535Z,2.3
2018-05-07T01:37:58.519Z,2.2
2018-05-07T01:40:58.561Z,2
2018-05-07T01:43:58.555Z,2
2018-05-07T01:46:58.572Z,2
2018-05-07T01:49:58.627Z,2.9
2018-05-07T01:52:58.507Z,2.2
2018-05-07T01:55:58.424Z,1.9
2018-05-07T01:58:58.574Z,2.5
2018-05-07T02:01:58.492Z,2
2018-05-07T02:04:58.382Z,2.2
2018-05-07T02:07:58.417Z,1.9
2018-05-07T02:10:58.464Z,1.9
2018-05-07T02:13:58.503Z,1.8
2018-05-07T02:16:58.330Z,2.1
2018-05-07T02:19:58.471Z,2.1
2018-05-07T02:22:58.498Z,2.3
2018-05-07T02:25:58.534Z,2
2018-05-07T02:28:58.564Z,1.8
2018-05-07T02:31:58.524Z,2.3
2018-05-07T02:34:58.429Z,1.8
2018-05-07T02:37:58.439Z,2
2018-05-07T02:40:58.383Z,1.8
2018-05-07T02:43:58.414Z,2.1
2018-05-07T02:46:58.566Z,2.1
2018-05-07T02:49:58.460Z,1.8
2018-05-07T02:52:58.393Z,1.9
2018-05-07T02:55:58.332Z,1.9
2018-05-07T02:58:58.559Z,1.8
2018-05-07T03:01:58.441Z,1.8
2018-05-07T03:04:58.454Z,2.1
2018-05-07T03:07:58.493Z,2
2018-05-07T03:10:58.391Z,1.9
2018-05-07T03:13:58.358Z,2.3
2018-05-07T03:16:58.663Z,2.4
2018-05-07T03:19:58.480Z,1.8
2018-05-07T03:22:58.669Z,1.8
2018-05-07T03:25:58.341Z,1.9
2018-05-07T03:28:58.386Z,2
2018-05-07T03:31:58.573Z,3.1
2018-05-07T03:34:58.481Z,2.4
2018-05-07T03:37:58.439Z,1.7
2018-05-07T03:40:58.388Z,1.7
2018-05-07T03:43:58.433Z,1.8
2018-05-07T06:02:42.728Z,1.9
2018-05-07T06:05:42.258Z,2.4
2018-05-07T06:08:42.419Z,1.5
2018-05-07T06:11:42.489Z,1.9
2018-05-07T06:14:44.201Z,1.8
2018-05-07T06:17:42.173Z,1.7
2018-05-07T06:20:42.341Z,1.7
2018-05-07T06:23:42.182Z,1.7
2018-05-07T06:26:42.339Z,1.8
2018-05-07T06:29:42.202Z,1.8
2018-05-07T06:32:42.334Z,1.8
2018-05-07T06:35:42.427Z,1.9
2018-05-07T06:38:42.516Z,1.9
2018-05-07T06:41:42.392Z,1.8
2018-05-07T06:44:42.251Z,1.7
2018-05-07T06:47:42.434Z,1.8
2018-05-07T06:50:42.276Z,1.7
2018-05-07T06:53:43.585Z,2.2
2018-05-07T06:56:42.283Z,2.3
2018-05-07T06:59:42.345Z,1.9
2018-05-07T07:02:44.670Z,1.8
2018-05-07T07:05:42.422Z,1.6
2018-05-07T07:08:42.979Z,2.5
2018-05-07T07:11:42.257Z,1.7
2018-05-07T07:14:42.318Z,2
2018-05-07T07:17:42.415Z,1.6
2018-05-07T07:20:42.262Z,1.7
2018-05-07T07:23:42.346Z,1.7
2018-05-07T07:26:42.445Z,1.7
2018-05-07T07:29:52.195Z,1.6
2018-05-07T07:32:42.354Z,1.8
2018-05-07T07:35:42.174Z,1.7
2018-05-07T07:38:42.751Z,1.8
2018-05-07T07:41:42.421Z,1.6
2018-05-07T07:44:42.348Z,1.6
2018-05-07T07:47:42.556Z,1.7
2018-05-07T07:50:42.423Z,1.6
2018-05-07T07:53:43.033Z,1.7
2018-05-07T07:56:42.339Z,1.7
2018-05-07T07:59:42.297Z,1.6
2018-05-07T08:02:42.291Z,1.8
2018-05-07T08:05:42.251Z,1.8
2018-05-07T08:08:42.202Z,1.7
2018-05-07T08:11:42.381Z,2
2018-05-07T08:14:42.358Z,1.7
2018-05-07T08:17:42.264Z,1.6
2018-05-07T08:20:42.218Z,1.7
2018-05-07T08:23:42.257Z,1.6
2018-05-07T08:26:42.273Z,1.7
2018-05-07T08:29:42.249Z,1.9
2018-05-07T08:32:42.317Z,1.8
2018-05-07T08:35:42.404Z,1.7
2018-05-07T08:38:42.216Z,1.6
2018-05-07T08:41:42.219Z,1.7
2018-05-07T08:44:42.283Z,1.9
2018-05-07T08:47:42.306Z,2.1
2018-05-07T08:50:42.152Z,1.6
2018-05-07T08:53:42.389Z,1.6
2018-05-07T08:56:42.179Z,1.8
2018-05-07T08:59:42.321Z,1.6
2018-05-07T09:02:42.357Z,1.8
2018-05-07T09:05:42.153Z,1.6
2018-05-07T09:08:42.389Z,2
2018-05-07T09:11:42.348Z,1.7
2018-05-07T09:14:42.157Z,1.6
2018-05-07T09:17:42.209Z,1.8
2018-05-07T09:20:42.387Z,1.6
2018-05-07T09:23:42.381Z,1.7
2018-05-07T09:26:42.338Z,1.6
2018-05-07T09:29:42.181Z,1.9
2018-05-07T09:32:42.152Z,1.6
2018-05-07T09:35:42.317Z,1.6
2018-05-07T09:38:42.389Z,1.8
2018-05-07T09:41:42.154Z,1.8
2018-05-07T09:44:42.431Z,1.6
2018-05-07T09:47:42.375Z,1.7
2018-05-07T09:50:42.222Z,1.6
2018-05-07T09:53:42.270Z,1.7
2018-05-07T09:56:42.629Z,1.8
2018-05-07T09:59:42.301Z,1.7
2018-05-07T10:02:42.256Z,1.6
2018-05-07T10:05:42.496Z,1.6
2018-05-07T10:08:42.242Z,1.7
2018-05-07T10:11:42.247Z,1.7
2018-05-07T10:14:42.182Z,1.7
2018-05-07T10:17:42.383Z,1.6
2018-05-07T10:20:42.273Z,1.5
2018-05-07T10:23:42.334Z,2
2018-05-07T10:26:42.093Z,1.6
2018-05-07T10:29:42.567Z,1.6
2018-05-07T10:32:42.320Z,1.8
2018-05-07T10:35:42.338Z,1.7
2018-05-07T10:38:42.211Z,1.9
2018-05-07T10:41:42.154Z,1.6
2018-05-07T10:44:42.317Z,1.7
2018-05-07T10:47:42.221Z,1.7
2018-05-07T10:50:42.255Z,1.7
2018-05-07T10:53:42.178Z,1.8
2018-05-07T10:56:42.401Z,1.6
2018-05-07T10:59:42.147Z,1.5
2018-05-07T11:02:42.230Z,1.7
2018-05-07T11:05:42.206Z,1.6
2018-05-07T11:08:42.357Z,1.5
2018-05-07T11:11:42.286Z,1.5
2018-05-07T11:14:42.232Z,1.7
2018-05-07T11:17:42.277Z,1.6
2018-05-07T11:20:42.170Z,1.6
2018-05-07T11:23:42.347Z,1.8
2018-05-07T11:26:42.175Z,2.4
2018-05-07T11:29:42.242Z,3.8
2018-05-07T11:32:42.281Z,3.2
2018-05-07T11:35:42.261Z,1.9
2018-05-07T11:38:42.168Z,1.8
2018-05-07T11:41:42.169Z,2.2
2018-05-07T11:44:42.143Z,1.9
2018-05-07T11:47:42.997Z,3.3
2018-05-07T11:50:42.266Z,3.3
2018-05-07T11:53:42.197Z,3.4
2018-05-07T11:56:42.169Z,2.3
2018-05-07T11:59:42.183Z,2.1
2018-05-07T12:02:42.770Z,2.1
2018-05-07T12:05:42.350Z,3.8
2018-05-07T12:08:42.291Z,3.7
2018-05-07T12:11:42.304Z,3.5
2018-05-07T12:14:42.114Z,6.2
2018-05-07T12:17:42.185Z,4.9
2018-05-07T12:20:42.301Z,2.5
2018-05-07T12:23:42.210Z,3.6
2018-05-07T12:26:42.203Z,2.2
2018-05-07T12:29:42.227Z,2.5
2018-05-07T12:32:42.030Z,3.6
2018-05-07T12:35:42.413Z,1.9
2018-05-07T12:38:42.177Z,2.6
2018-05-07T12:41:42.311Z,3.2
2018-05-07T12:44:42.178Z,3.3
2018-05-07T12:47:42.102Z,1.8
2018-05-07T12:50:42.152Z,2.5
2018-05-07T12:53:42.304Z,2
2018-05-07T12:56:42.159Z,3.5
2018-05-07T12:59:42.074Z,3
2018-05-07T13:02:42.152Z,3.2
2018-05-07T13:05:42.252Z,1.9
2018-05-07T13:08:42.262Z,1.7
2018-05-07T13:11:42.206Z,3.2
2018-05-07T13:14:42.231Z,2.2
2018-05-07T13:17:42.237Z,3
2018-05-07T13:20:42.313Z,1.7
2018-05-07T13:23:42.058Z,1.8
2018-05-07T13:26:42.182Z,3.2
2018-05-07T13:29:42.097Z,2
2018-05-07T13:32:42.117Z,3.1
2018-05-07T13:35:42.160Z,5.3
2018-05-07T13:38:42.140Z,3.5
2018-05-07T13:41:42.177Z,2.8
2018-05-07T13:44:42.146Z,3.3
2018-05-07T13:47:42.322Z,3.2
2018-05-07T13:50:42.374Z,4.7
2018-05-07T13:53:42.084Z,3.5
2018-05-07T13:56:42.339Z,2.4
2018-05-07T13:59:42.263Z,4.3
2018-05-07T14:02:42.990Z,4.8
2018-05-07T14:05:42.240Z,3.1
2018-05-07T14:08:42.184Z,2.9
2018-05-07T14:11:42.298Z,3.5
2018-05-07T14:14:42.378Z,3.2
2018-05-07T14:17:42.353Z,2.5
2018-05-07T14:20:42.164Z,1.9
2018-05-07T14:23:41.944Z,4.7
2018-05-07T14:26:42.152Z,2.6
2018-05-07T14:29:42.408Z,2.8
2018-05-07T14:32:42.144Z,2.2
2018-05-07T14:35:42.213Z,3
2018-05-07T14:38:42.849Z,3.3
2018-05-07T14:41:42.220Z,6.9
2018-05-07T14:44:42.163Z,3
2018-05-07T14:47:42.262Z,1.7
2018-05-07T14:50:42.362Z,2.4
2018-05-07T14:53:42.097Z,1.8
2018-05-07T14:56:42.252Z,2.2
2018-05-07T14:59:42.106Z,2.1
2018-05-07T15:02:42.332Z,3.5
2018-05-07T15:05:42.011Z,2.1
2018-05-07T15:08:42.115Z,1.7
2018-05-07T15:11:42.117Z,1.7
2018-05-07T15:14:42.210Z,2.5
2018-05-07T15:17:42.095Z,1.9
2018-05-07T15:20:42.112Z,2.2
2018-05-07T15:23:42.103Z,2.3
2018-05-07T15:26:42.253Z,2
2018-05-07T15:29:42.117Z,1.7
2018-05-07T15:32:42.101Z,2.2
2018-05-07T15:35:42.073Z,1.6
2018-05-07T15:38:41.992Z,1.8
2018-05-07T15:41:42.242Z,1.8
2018-05-07T15:44:42.316Z,1.8
2018-05-07T15:47:42.140Z,1.9
2018-05-07T15:50:42.215Z,1.8
2018-05-07T15:53:42.522Z,1.8
2018-05-07T15:56:42.161Z,1.7
2018-05-07T15:59:42.158Z,2.4
2018-05-07T16:02:42.475Z,2
2018-05-07T16:05:42.002Z,1.5
2018-05-07T16:08:42.842Z,2.9
2018-05-07T16:11:42.085Z,2.3
2018-05-07T16:14:42.113Z,1.6
2018-05-07T16:17:42.617Z,1.8
2018-05-07T16:20:42.976Z,1.7
2018-05-07T16:23:42.190Z,1.6
2018-05-07T16:26:42.400Z,1.6
2018-05-07T16:29:42.324Z,1.7
2018-05-07T16:32:42.328Z,1.9
2018-05-07T16:35:42.930Z,1.9
2018-05-07T16:38:42.379Z,2.1
2018-05-07T16:41:42.502Z,1.7
2018-05-07T16:44:42.114Z,1.7
2018-05-07T16:47:42.236Z,1.7
2018-05-07T16:50:42.410Z,2.2
2018-05-07T16:53:42.242Z,2
2018-05-07T16:56:42.168Z,3.1
2018-05-07T16:59:42.368Z,1.8
2018-05-07T17:02:42.109Z,3.5
2018-05-07T17:05:42.275Z,2
2018-05-07T17:08:42.089Z,2.4
2018-05-07T17:11:42.296Z,1.7
2018-05-07T17:14:42.236Z,2
2018-05-07T17:17:42.325Z,2.2
2018-05-07T17:20:42.227Z,2.6
2018-05-07T17:23:42.189Z,2.2
2018-05-07T17:26:42.346Z,1.7
2018-05-07T17:29:42.271Z,2.4
2018-05-07T17:32:42.186Z,2.3
2018-05-07T17:35:42.259Z,2.3
2018-05-07T17:38:42.389Z,2.1
2018-05-07T17:41:42.228Z,1.9
2018-05-07T17:44:42.157Z,1.8
2018-05-07T17:47:42.272Z,2.7
2018-05-07T17:50:42.165Z,3.2
2018-05-07T17:53:42.152Z,1.9
2018-05-07T17:56:42.007Z,1.7
2018-05-07T17:59:42.212Z,1.8
2018-05-07T18:02:42.205Z,1.5
2018-05-07T18:05:42.208Z,1.6
2018-05-07T18:08:42.321Z,1.6
2018-05-07T18:11:42.175Z,1.8
2018-05-07T18:14:42.103Z,2.4
2018-05-07T18:17:42.407Z,1.6
2018-05-07T18:20:42.297Z,2.4
2018-05-07T18:23:42.139Z,1.8
2018-05-07T18:26:42.164Z,1.6
2018-05-07T18:29:42.199Z,1.6
2018-05-07T18:32:42.337Z,1.6
2018-05-07T18:35:42.279Z,1.7
2018-05-07T18:38:42.282Z,1.7
2018-05-07T18:41:42.186Z,1.8
2018-05-07T18:44:42.231Z,1.8
2018-05-07T18:47:42.265Z,1.7
2018-05-07T18:50:42.307Z,1.6
2018-05-07T18:53:42.438Z,1.6
2018-05-07T18:56:42.375Z,1.8
2018-05-07T18:59:42.133Z,1.6
2018-05-07T19:02:42.423Z,5.1
2018-05-07T19:05:42.176Z,4.9
2018-05-07T19:08:42.239Z,6
2018-05-07T19:11:42.291Z,6
2018-05-07T19:14:42.294Z,5.3
2018-05-07T19:17:42.320Z,5.5
2018-05-07T19:20:42.418Z,7.8
2018-05-07T19:23:42.525Z,4.6
2018-05-07T19:26:42.348Z,5.3
2018-05-07T19:29:42.255Z,3.5
2018-05-07T19:32:42.139Z,6.9
2018-05-07T19:35:42.203Z,6.9
2018-05-07T19:38:42.259Z,5.7
2018-05-07T19:41:42.176Z,5.6
2018-05-07T19:44:42.119Z,3
2018-05-07T19:47:42.324Z,4.3
2018-05-07T19:50:42.512Z,4.5
2018-05-07T19:53:42.012Z,3.2
2018-05-07T19:56:42.330Z,4.6
2018-05-07T19:59:42.259Z,5.2
2018-05-07T20:02:42.317Z,5.5
2018-05-07T20:05:42.228Z,3.7
2018-05-07T20:08:42.237Z,6.1
2018-05-07T20:11:42.263Z,5
2018-05-07T20:14:42.366Z,4.9
2018-05-07T20:17:42.170Z,4
2018-05-07T20:20:42.144Z,7.1
2018-05-07T20:23:42.273Z,5.5
2018-05-07T20:26:42.160Z,3
2018-05-07T20:29:42.305Z,3.6
2018-05-07T20:32:42.413Z,5.6
2018-05-07T20:35:42.091Z,4.2
2018-05-07T20:38:42.250Z,4.6
2018-05-07T20:41:42.001Z,3
2018-05-07T20:44:42.092Z,2.5
2018-05-07T20:47:42.292Z,2.9
2018-05-07T20:50:42.059Z,3.7
2018-05-07T20:53:42.025Z,2.8
2018-05-07T20:56:42.286Z,4.6
2018-05-07T20:59:42.062Z,4.8
2018-05-07T21:02:42.119Z,4.5
2018-05-07T21:05:42.134Z,2.4
2018-05-07T21:08:42.250Z,2.7
2018-05-07T21:11:42.235Z,2.2
2018-05-07T21:14:42.122Z,4.2
2018-05-07T21:17:42.087Z,2.6
2018-05-07T21:20:42.293Z,2.8
2018-05-07T21:23:42.200Z,2.7
2018-05-07T21:26:42.045Z,2.9
2018-05-07T21:29:42.197Z,2.4
2018-05-07T21:32:42.322Z,2.8
2018-05-07T21:35:43.031Z,3.4
2018-05-07T21:38:42.010Z,3.2
2018-05-07T21:41:42.136Z,2.5
2018-05-07T21:44:42.138Z,3
2018-05-07T21:47:41.985Z,2.3
2018-05-07T21:50:42.088Z,2.9
2018-05-07T21:53:42.045Z,2.1
2018-05-07T21:56:42.097Z,1.7
2018-05-07T21:59:42.209Z,2.7
2018-05-07T22:02:42.170Z,2.7
2018-05-07T22:05:42.104Z,2.4
2018-05-07T22:08:42.164Z,4
2018-05-07T22:11:42.104Z,3.8
2018-05-07T22:14:42.225Z,2.6
2018-05-07T22:17:42.043Z,2.5
2018-05-07T22:20:42.257Z,3
2018-05-07T22:23:42.092Z,2.4
2018-05-07T22:26:42.280Z,2.2
2018-05-07T22:29:42.188Z,3.2
2018-05-07T22:32:42.045Z,2.9
2018-05-07T22:35:42.279Z,3.6
2018-05-07T22:38:42.261Z,2.4
2018-05-07T22:41:42.106Z,2.3
2018-05-07T22:44:41.958Z,2.6
2018-05-07T22:47:42.349Z,3.6
2018-05-07T22:50:42.200Z,2
2018-05-07T22:53:42.180Z,2.6
2018-05-07T22:56:42.177Z,3.4
2018-05-07T22:59:42.298Z,2.6
2018-05-07T23:02:52.053Z,1.8
2018-05-07T23:05:41.975Z,3.7
2018-05-07T23:08:42.090Z,2.3
2018-05-07T23:11:42.066Z,2
2018-05-07T23:14:42.278Z,1.9
2018-05-07T23:17:42.226Z,1.8
2018-05-07T23:20:42.166Z,2.2
2018-05-07T23:23:41.955Z,2.2
2018-05-07T23:26:41.995Z,2.9
2018-05-07T23:29:42.188Z,1.8
2018-05-07T23:32:42.194Z,2.9
2018-05-07T23:35:42.164Z,1.9
2018-05-07T23:38:42.098Z,2.5
2018-05-07T23:41:42.093Z,2.7
2018-05-07T23:44:42.139Z,2.5
2018-05-07T23:47:41.939Z,3.9
2018-05-07T23:50:42.178Z,2.6
2018-05-07T23:53:41.982Z,1.8
2018-05-07T23:56:42.206Z,1.9
2018-05-07T23:59:42.052Z,2.2
